sensor_id;sensor_type;location;lat;lon;timestamp;pressure;altitude;pressure_sealevel;temperature;humidity
77299;BME280;66361;52.034;20.656;2023-04-24T00:02:46;98943.31;;;8.82;84.24
77299;BME280;66361;52.034;20.656;2023-04-24T00:06:50;98943.94;;;8.61;84.46
77299;BME280;66361;52.034;20.656;2023-04-24T00:10:55;98936.38;;;8.46;84.08
77299;BME280;66361;52.034;20.656;2023-04-24T00:14:59;98936.19;;;8.36;83.60
77299;BME280;66361;52.034;20.656;2023-04-24T00:19:04;98934.03;;;8.30;84.22
77299;BME280;66361;52.034;20.656;2023-04-24T00:23:08;98930.66;;;8.28;84.58
77299;BME280;66361;52.034;20.656;2023-04-24T00:27:10;98931.41;;;8.30;85.53
77299;BME280;66361;52.034;20.656;2023-04-24T00:31:14;98923.81;;;8.38;85.70
77299;BME280;66361;52.034;20.656;2023-04-24T00:35:18;98919.75;;;8.45;85.72
77299;BME280;66361;52.034;20.656;2023-04-24T00:39:21;98921.66;;;8.43;86.16
77299;BME280;66361;52.034;20.656;2023-04-24T00:43:24;98914.47;;;8.34;86.24
77299;BME280;66361;52.034;20.656;2023-04-24T00:47:31;98914.28;;;8.24;86.42
77299;BME280;66361;52.034;20.656;2023-04-24T00:51:36;98913.19;;;8.16;87.57
77299;BME280;66361;52.034;20.656;2023-04-24T00:55:39;98925.28;;;8.06;88.46
77299;BME280;66361;52.034;20.656;2023-04-24T00:59:42;98916.72;;;7.91;89.35
77299;BME280;66361;52.034;20.656;2023-04-24T01:03:45;98915.69;;;7.81;91.11
77299;BME280;66361;52.034;20.656;2023-04-24T01:07:50;98912.88;;;7.71;92.20
77299;BME280;66361;52.034;20.656;2023-04-24T01:11:53;98908.22;;;7.75;92.15
77299;BME280;66361;52.034;20.656;2023-04-24T01:15:58;98906.53;;;7.87;91.72
77299;BME280;66361;52.034;20.656;2023-04-24T01:20:04;98900.84;;;7.93;92.17
77299;BME280;66361;52.034;20.656;2023-04-24T01:24:09;98900.31;;;8.00;91.06
77299;BME280;66361;52.034;20.656;2023-04-24T01:28:13;98905.03;;;7.95;91.07
77299;BME280;66361;52.034;20.656;2023-04-24T01:32:17;98893.75;;;7.82;91.45
77299;BME280;66361;52.034;20.656;2023-04-24T01:36:21;98890.91;;;7.72;93.18
77299;BME280;66361;52.034;20.656;2023-04-24T01:40:28;98887.91;;;7.66;93.97
77299;BME280;66361;52.034;20.656;2023-04-24T01:44:31;98884.88;;;7.59;93.93
77299;BME280;66361;52.034;20.656;2023-04-24T01:48:36;98882.88;;;7.50;93.64
77299;BME280;66361;52.034;20.656;2023-04-24T01:52:39;98880.88;;;7.41;94.76
77299;BME280;66361;52.034;20.656;2023-04-24T01:56:43;98877.56;;;7.39;94.52
77299;BME280;66361;52.034;20.656;2023-04-24T02:00:46;98881.56;;;7.32;94.86
77299;BME280;66361;52.034;20.656;2023-04-24T02:04:49;98880.31;;;7.25;94.45
77299;BME280;66361;52.034;20.656;2023-04-24T02:08:52;98872.44;;;7.12;94.75
77299;BME280;66361;52.034;20.656;2023-04-24T02:12:57;98866.25;;;7.01;94.05
77299;BME280;66361;52.034;20.656;2023-04-24T02:17:01;98857.25;;;6.92;95.78
77299;BME280;66361;52.034;20.656;2023-04-24T02:21:04;98855.94;;;6.85;95.83
77299;BME280;66361;52.034;20.656;2023-04-24T02:25:08;98848.28;;;6.82;97.19
77299;BME280;66361;52.034;20.656;2023-04-24T02:29:12;98850.47;;;6.75;96.65
77299;BME280;66361;52.034;20.656;2023-04-24T02:33:16;98839.66;;;6.67;97.81
77299;BME280;66361;52.034;20.656;2023-04-24T02:37:19;98840.19;;;6.60;98.70
77299;BME280;66361;52.034;20.656;2023-04-24T02:41:22;98840.31;;;6.58;99.84
77299;BME280;66361;52.034;20.656;2023-04-24T02:45:26;98839.97;;;6.63;100.00
77299;BME280;66361;52.034;20.656;2023-04-24T02:49:29;98839.97;;;6.63;100.00
77299;BME280;66361;52.034;20.656;2023-04-24T02:53:32;98839.97;;;6.63;100.00
77299;BME280;66361;52.034;20.656;2023-04-24T02:57:35;98838.59;;;6.70;100.00
77299;BME280;66361;52.034;20.656;2023-04-24T03:01:39;98845.03;;;6.78;100.00
77299;BME280;66361;52.034;20.656;2023-04-24T03:05:43;98845.66;;;6.82;100.00
77299;BME280;66361;52.034;20.656;2023-04-24T03:09:46;98844.72;;;6.83;100.00
77299;BME280;66361;52.034;20.656;2023-04-24T03:13:49;98842.53;;;6.90;100.00
77299;BME280;66361;52.034;20.656;2023-04-24T03:17:53;98837.69;;;6.96;100.00
77299;BME280;66361;52.034;20.656;2023-04-24T03:21:57;98842.75;;;6.99;100.00
77299;BME280;66361;52.034;20.656;2023-04-24T03:26:00;98848.09;;;6.98;100.00
77299;BME280;66361;52.034;20.656;2023-04-24T03:30:06;98845.03;;;7.04;100.00
77299;BME280;66361;52.034;20.656;2023-04-24T03:34:11;98853.00;;;7.15;100.00
77299;BME280;66361;52.034;20.656;2023-04-24T03:38:14;98852.78;;;7.30;100.00
77299;BME280;66361;52.034;20.656;2023-04-24T03:42:17;98848.22;;;7.45;100.00
77299;BME280;66361;52.034;20.656;2023-04-24T03:46:19;98852.41;;;7.60;100.00
77299;BME280;66361;52.034;20.656;2023-04-24T03:50:25;98851.31;;;7.75;100.00
77299;BME280;66361;52.034;20.656;2023-04-24T03:54:30;98845.91;;;7.90;99.36
77299;BME280;66361;52.034;20.656;2023-04-24T03:58:33;98843.13;;;8.04;96.93
77299;BME280;66361;52.034;20.656;2023-04-24T04:02:37;98847.72;;;8.24;96.62
77299;BME280;66361;52.034;20.656;2023-04-24T04:06:42;98844.22;;;8.47;96.42
77299;BME280;66361;52.034;20.656;2023-04-24T04:10:45;98841.41;;;8.72;95.92
77299;BME280;66361;52.034;20.656;2023-04-24T04:14:48;98840.06;;;9.24;92.76
77299;BME280;66361;52.034;20.656;2023-04-24T04:18:50;98846.66;;;10.06;87.90
77299;BME280;66361;52.034;20.656;2023-04-24T04:22:55;98840.06;;;11.85;78.05
77299;BME280;66361;52.034;20.656;2023-04-24T04:26:58;98840.16;;;13.08;72.79
77299;BME280;66361;52.034;20.656;2023-04-24T04:31:01;98844.59;;;14.44;69.32
77299;BME280;66361;52.034;20.656;2023-04-24T04:35:07;98837.63;;;16.14;61.40
77299;BME280;66361;52.034;20.656;2023-04-24T04:39:12;98832.41;;;16.05;58.27
77299;BME280;66361;52.034;20.656;2023-04-24T04:43:16;98837.03;;;15.19;61.69
77299;BME280;66361;52.034;20.656;2023-04-24T04:47:21;98830.44;;;17.28;56.93
77299;BME280;66361;52.034;20.656;2023-04-24T04:51:24;98837.91;;;19.82;49.68
77299;BME280;66361;52.034;20.656;2023-04-24T04:55:29;98836.88;;;21.25;45.29
77299;BME280;66361;52.034;20.656;2023-04-24T04:59:33;98842.03;;;22.43;45.30
77299;BME280;66361;52.034;20.656;2023-04-24T05:03:36;98836.28;;;23.32;40.99
77299;BME280;66361;52.034;20.656;2023-04-24T05:07:39;98830.47;;;24.12;36.28
77299;BME280;66361;52.034;20.656;2023-04-24T05:11:44;98833.75;;;23.63;37.98
77299;BME280;66361;52.034;20.656;2023-04-24T05:15:47;98827.34;;;21.51;41.65
77299;BME280;66361;52.034;20.656;2023-04-24T05:19:52;98827.53;;;20.09;46.66
77299;BME280;66361;52.034;20.656;2023-04-24T05:23:54;98830.25;;;19.50;49.04
77299;BME280;66361;52.034;20.656;2023-04-24T05:27:59;98832.50;;;19.76;49.63
77299;BME280;66361;52.034;20.656;2023-04-24T05:32:02;98832.22;;;20.21;49.15
77299;BME280;66361;52.034;20.656;2023-04-24T05:36:06;98823.13;;;21.07;47.94
77299;BME280;66361;52.034;20.656;2023-04-24T05:40:10;98834.00;;;23.35;41.52
77299;BME280;66361;52.034;20.656;2023-04-24T05:44:14;98833.72;;;26.00;33.98
77299;BME280;66361;52.034;20.656;2023-04-24T05:48:17;98824.56;;;27.61;28.31
77299;BME280;66361;52.034;20.656;2023-04-24T05:52:20;98828.47;;;25.26;33.15
77299;BME280;66361;52.034;20.656;2023-04-24T05:56:23;98824.66;;;23.51;36.90
77299;BME280;66361;52.034;20.656;2023-04-24T06:00:28;98821.28;;;25.38;34.00
77299;BME280;66361;52.034;20.656;2023-04-24T06:04:31;98819.19;;;28.01;29.46
77299;BME280;66361;52.034;20.656;2023-04-24T06:08:35;98815.81;;;30.05;24.95
77299;BME280;66361;52.034;20.656;2023-04-24T06:12:38;98824.44;;;31.36;23.00
77299;BME280;66361;52.034;20.656;2023-04-24T06:16:43;98829.00;;;32.20;22.39
77299;BME280;66361;52.034;20.656;2023-04-24T06:20:48;98820.44;;;32.93;19.23
77299;BME280;66361;52.034;20.656;2023-04-24T06:24:52;98809.78;;;33.07;20.28
77299;BME280;66361;52.034;20.656;2023-04-24T06:28:55;98808.94;;;32.96;19.18
77299;BME280;66361;52.034;20.656;2023-04-24T06:33:01;98808.63;;;32.57;20.75
77299;BME280;66361;52.034;20.656;2023-04-24T06:37:20;98820.34;;;33.79;21.02
77299;BME280;66361;52.034;20.656;2023-04-24T06:41:23;98816.81;;;34.38;19.13
77299;BME280;66361;52.034;20.656;2023-04-24T06:45:26;98820.53;;;34.52;17.12
77299;BME280;66361;52.034;20.656;2023-04-24T06:49:31;98831.09;;;33.30;19.58
77299;BME280;66361;52.034;20.656;2023-04-24T06:53:36;98822.41;;;34.08;18.41
77299;BME280;66361;52.034;20.656;2023-04-24T06:57:39;98828.06;;;34.31;19.40
77299;BME280;66361;52.034;20.656;2023-04-24T07:01:42;98824.69;;;34.49;20.27
77299;BME280;66361;52.034;20.656;2023-04-24T07:05:48;98820.03;;;34.45;19.08
77299;BME280;66361;52.034;20.656;2023-04-24T07:09:52;98816.88;;;34.28;18.95
77299;BME280;66361;52.034;20.656;2023-04-24T07:13:57;98818.72;;;35.49;17.90
77299;BME280;66361;52.034;20.656;2023-04-24T07:18:00;98826.88;;;36.68;17.09
77299;BME280;66361;52.034;20.656;2023-04-24T07:22:10;98823.41;;;35.96;17.25
77299;BME280;66361;52.034;20.656;2023-04-24T07:26:18;98825.06;;;35.73;18.16
77299;BME280;66361;52.034;20.656;2023-04-24T07:30:22;98829.59;;;36.49;16.00
77299;BME280;66361;52.034;20.656;2023-04-24T07:34:25;98819.44;;;36.68;16.43
77299;BME280;66361;52.034;20.656;2023-04-24T07:38:30;98818.06;;;36.84;16.83
77299;BME280;66361;52.034;20.656;2023-04-24T07:42:33;98817.34;;;36.79;16.42
77299;BME280;66361;52.034;20.656;2023-04-24T07:46:37;98811.78;;;36.04;16.09
77299;BME280;66361;52.034;20.656;2023-04-24T07:50:40;98811.03;;;36.41;15.57
77299;BME280;66361;52.034;20.656;2023-04-24T07:54:44;98812.69;;;35.47;16.76
77299;BME280;66361;52.034;20.656;2023-04-24T07:58:47;98803.44;;;36.14;14.74
77299;BME280;66361;52.034;20.656;2023-04-24T08:02:50;98805.81;;;36.58;15.06
77299;BME280;66361;52.034;20.656;2023-04-24T08:06:56;98802.78;;;36.78;15.66
77299;BME280;66361;52.034;20.656;2023-04-24T08:11:00;98805.28;;;37.72;14.42
77299;BME280;66361;52.034;20.656;2023-04-24T08:15:04;98797.91;;;37.54;14.42
77299;BME280;66361;52.034;20.656;2023-04-24T08:19:07;98797.75;;;37.77;14.45
77299;BME280;66361;52.034;20.656;2023-04-24T08:23:13;98797.91;;;37.40;13.66
77299;BME280;66361;52.034;20.656;2023-04-24T08:27:17;98797.91;;;35.43;15.67
77299;BME280;66361;52.034;20.656;2023-04-24T08:31:20;98805.91;;;35.06;15.82
77299;BME280;66361;52.034;20.656;2023-04-24T08:35:24;98800.09;;;35.12;16.02
77299;BME280;66361;52.034;20.656;2023-04-24T08:39:27;98799.44;;;36.63;14.87
77299;BME280;66361;52.034;20.656;2023-04-24T08:43:37;98791.03;;;36.92;13.81
77299;BME280;66361;52.034;20.656;2023-04-24T08:47:42;98799.63;;;37.50;15.50
77299;BME280;66361;52.034;20.656;2023-04-24T08:51:46;98789.50;;;36.67;14.46
77299;BME280;66361;52.034;20.656;2023-04-24T08:55:49;98795.06;;;36.80;15.80
77299;BME280;66361;52.034;20.656;2023-04-24T08:59:54;98790.09;;;36.96;15.61
77299;BME280;66361;52.034;20.656;2023-04-24T09:04:00;98788.00;;;36.37;16.55
77299;BME280;66361;52.034;20.656;2023-04-24T09:08:06;98788.97;;;36.27;16.36
77299;BME280;66361;52.034;20.656;2023-04-24T09:12:12;98784.56;;;36.82;15.55
77299;BME280;66361;52.034;20.656;2023-04-24T09:16:17;98786.50;;;36.45;15.56
77299;BME280;66361;52.034;20.656;2023-04-24T09:20:22;98786.50;;;36.02;17.64
77299;BME280;66361;52.034;20.656;2023-04-24T09:24:25;98784.50;;;36.13;16.70
77299;BME280;66361;52.034;20.656;2023-04-24T09:28:30;98772.09;;;35.44;16.40
77299;BME280;66361;52.034;20.656;2023-04-24T09:32:35;98776.66;;;33.39;18.52
77299;BME280;66361;52.034;20.656;2023-04-24T09:36:40;98758.88;;;32.30;19.93
77299;BME280;66361;52.034;20.656;2023-04-24T09:40:44;98774.94;;;32.11;20.30
77299;BME280;66361;52.034;20.656;2023-04-24T09:44:49;98762.25;;;31.38;20.88
77299;BME280;66361;52.034;20.656;2023-04-24T09:49:09;98760.78;;;30.52;22.97
77299;BME280;66361;52.034;20.656;2023-04-24T09:53:13;98757.84;;;30.58;21.31
77299;BME280;66361;52.034;20.656;2023-04-24T09:57:19;98749.16;;;29.43;23.87
77299;BME280;66361;52.034;20.656;2023-04-24T10:01:30;98748.84;;;28.39;24.78
77299;BME280;66361;52.034;20.656;2023-04-24T10:05:37;98742.72;;;27.35;26.16
77299;BME280;66361;52.034;20.656;2023-04-24T10:09:41;98737.16;;;26.95;27.84
77299;BME280;66361;52.034;20.656;2023-04-24T10:13:45;98738.53;;;26.52;27.12
77299;BME280;66361;52.034;20.656;2023-04-24T10:17:49;98739.81;;;26.49;29.49
77299;BME280;66361;52.034;20.656;2023-04-24T10:21:57;98735.66;;;26.46;28.42
77299;BME280;66361;52.034;20.656;2023-04-24T10:26:01;98738.69;;;26.57;29.18
77299;BME280;66361;52.034;20.656;2023-04-24T10:30:05;98732.22;;;27.04;28.51
77299;BME280;66361;52.034;20.656;2023-04-24T10:34:09;98732.16;;;28.02;25.41
77299;BME280;66361;52.034;20.656;2023-04-24T10:38:22;98724.56;;;27.87;25.43
77299;BME280;66361;52.034;20.656;2023-04-24T10:42:27;98710.75;;;27.77;26.98
77299;BME280;66361;52.034;20.656;2023-04-24T10:46:31;98711.06;;;27.64;26.28
77299;BME280;66361;52.034;20.656;2023-04-24T10:50:44;98715.81;;;27.46;29.43
77299;BME280;66361;52.034;20.656;2023-04-24T10:54:49;98701.09;;;27.41;26.11
77299;BME280;66361;52.034;20.656;2023-04-24T10:58:53;98695.75;;;26.72;26.20
77299;BME280;66361;52.034;20.656;2023-04-24T11:02:56;98689.25;;;26.61;27.45
77299;BME280;66361;52.034;20.656;2023-04-24T11:07:00;98702.78;;;27.08;25.18
77299;BME280;66361;52.034;20.656;2023-04-24T11:11:09;98701.25;;;27.12;24.56
77299;BME280;66361;52.034;20.656;2023-04-24T11:15:13;98684.53;;;26.91;25.06
77299;BME280;66361;52.034;20.656;2023-04-24T11:19:21;98696.19;;;26.92;25.99
77299;BME280;66361;52.034;20.656;2023-04-24T11:23:26;98696.13;;;25.63;26.35
77299;BME280;66361;52.034;20.656;2023-04-24T11:27:31;98693.38;;;24.47;27.79
77299;BME280;66361;52.034;20.656;2023-04-24T11:31:39;98681.69;;;24.96;27.81
77299;BME280;66361;52.034;20.656;2023-04-24T11:35:43;98674.19;;;25.82;25.47
77299;BME280;66361;52.034;20.656;2023-04-24T11:39:46;98682.78;;;25.31;26.06
77299;BME280;66361;52.034;20.656;2023-04-24T11:43:52;98689.38;;;24.74;27.99
77299;BME280;66361;52.034;20.656;2023-04-24T11:47:57;98683.03;;;24.13;28.72
77299;BME280;66361;52.034;20.656;2023-04-24T11:52:00;98687.09;;;23.52;28.56
77299;BME280;66361;52.034;20.656;2023-04-24T11:56:04;98691.97;;;23.24;28.92
77299;BME280;66361;52.034;20.656;2023-04-24T12:00:15;98686.38;;;23.26;30.26
77299;BME280;66361;52.034;20.656;2023-04-24T12:04:19;98680.06;;;23.00;33.29
77299;BME280;66361;52.034;20.656;2023-04-24T12:08:31;98685.06;;;22.51;34.27
77299;BME280;66361;52.034;20.656;2023-04-24T12:12:38;98687.09;;;22.23;34.71
77299;BME280;66361;52.034;20.656;2023-04-24T12:16:47;98685.47;;;22.48;35.54
77299;BME280;66361;52.034;20.656;2023-04-24T12:20:55;98694.84;;;23.29;34.76
77299;BME280;66361;52.034;20.656;2023-04-24T12:25:03;98698.56;;;23.28;32.51
77299;BME280;66361;52.034;20.656;2023-04-24T12:29:07;98713.53;;;23.17;33.35
77299;BME280;66361;52.034;20.656;2023-04-24T12:33:11;98717.50;;;22.23;34.68
77299;BME280;66361;52.034;20.656;2023-04-24T12:37:15;98738.13;;;22.03;37.13
77299;BME280;66361;52.034;20.656;2023-04-24T12:41:18;98740.59;;;21.98;37.51
77299;BME280;66361;52.034;20.656;2023-04-24T12:45:21;98743.97;;;21.24;38.18
77299;BME280;66361;52.034;20.656;2023-04-24T12:49:29;98762.03;;;20.54;40.43
77299;BME280;66361;52.034;20.656;2023-04-24T12:53:36;98778.66;;;19.86;41.75
77299;BME280;66361;52.034;20.656;2023-04-24T12:57:40;98773.25;;;19.20;43.57
77299;BME280;66361;52.034;20.656;2023-04-24T13:01:43;98747.94;;;18.79;44.43
77299;BME280;66361;52.034;20.656;2023-04-24T13:05:48;98742.78;;;18.55;45.23
77299;BME280;66361;52.034;20.656;2023-04-24T13:09:51;98750.19;;;18.53;47.07
77299;BME280;66361;52.034;20.656;2023-04-24T13:13:55;98730.25;;;18.40;46.43
77299;BME280;66361;52.034;20.656;2023-04-24T13:18:00;98709.69;;;18.41;46.88
77299;BME280;66361;52.034;20.656;2023-04-24T13:22:05;98685.56;;;18.34;50.38
77299;BME280;66361;52.034;20.656;2023-04-24T13:26:08;98685.66;;;18.04;50.09
77299;BME280;66361;52.034;20.656;2023-04-24T13:30:12;98657.34;;;17.95;44.67
77299;BME280;66361;52.034;20.656;2023-04-24T13:34:15;98672.00;;;17.99;50.18
77299;BME280;66361;52.034;20.656;2023-04-24T13:38:19;98658.00;;;17.97;50.70
77299;BME280;66361;52.034;20.656;2023-04-24T13:42:23;98657.44;;;17.86;51.95
77299;BME280;66361;52.034;20.656;2023-04-24T13:46:27;98638.75;;;17.86;48.48
77299;BME280;66361;52.034;20.656;2023-04-24T13:50:30;98628.28;;;18.00;55.61
77299;BME280;66361;52.034;20.656;2023-04-24T13:54:35;98613.88;;;18.09;52.94
77299;BME280;66361;52.034;20.656;2023-04-24T13:58:38;98605.88;;;18.23;54.13
77299;BME280;66361;52.034;20.656;2023-04-24T14:02:43;98600.47;;;18.31;52.99
77299;BME280;66361;52.034;20.656;2023-04-24T14:06:46;98610.41;;;18.37;54.79
77299;BME280;66361;52.034;20.656;2023-04-24T14:10:54;98607.09;;;18.35;52.65
77299;BME280;66361;52.034;20.656;2023-04-24T14:14:57;98597.31;;;18.28;44.19
77299;BME280;66361;52.034;20.656;2023-04-24T14:19:00;98589.50;;;18.41;47.32
77299;BME280;66361;52.034;20.656;2023-04-24T14:23:04;98574.75;;;18.74;48.79
77299;BME280;66361;52.034;20.656;2023-04-24T14:27:08;98571.81;;;19.20;48.07
77299;BME280;66361;52.034;20.656;2023-04-24T14:31:11;98564.50;;;19.71;42.89
77299;BME280;66361;52.034;20.656;2023-04-24T14:35:15;98568.22;;;20.19;40.45
77299;BME280;66361;52.034;20.656;2023-04-24T14:39:23;98572.09;;;20.44;36.78
77299;BME280;66361;52.034;20.656;2023-04-24T14:43:28;98576.16;;;20.68;34.67
77299;BME280;66361;52.034;20.656;2023-04-24T14:47:32;98558.28;;;20.88;32.02
77299;BME280;66361;52.034;20.656;2023-04-24T14:51:35;98562.06;;;21.00;34.10
77299;BME280;66361;52.034;20.656;2023-04-24T14:55:38;98557.13;;;21.04;35.38
77299;BME280;66361;52.034;20.656;2023-04-24T14:59:45;98557.78;;;21.12;34.11
77299;BME280;66361;52.034;20.656;2023-04-24T15:03:49;98543.34;;;21.26;31.53
77299;BME280;66361;52.034;20.656;2023-04-24T15:07:53;98538.81;;;21.27;33.10
77299;BME280;66361;52.034;20.656;2023-04-24T15:11:55;98533.06;;;21.37;33.29
77299;BME280;66361;52.034;20.656;2023-04-24T15:16:00;98531.44;;;21.42;32.27
77299;BME280;66361;52.034;20.656;2023-04-24T15:20:08;98524.63;;;21.53;33.19
77299;BME280;66361;52.034;20.656;2023-04-24T15:24:11;98521.31;;;21.51;32.16
77299;BME280;66361;52.034;20.656;2023-04-24T15:28:14;98509.78;;;21.57;32.23
77299;BME280;66361;52.034;20.656;2023-04-24T15:32:21;98513.69;;;21.48;31.76
77299;BME280;66361;52.034;20.656;2023-04-24T15:36:24;98511.59;;;21.30;30.45
77299;BME280;66361;52.034;20.656;2023-04-24T15:40:27;98497.09;;;21.11;31.95
77299;BME280;66361;52.034;20.656;2023-04-24T15:44:30;98500.75;;;20.91;31.67
77299;BME280;66361;52.034;20.656;2023-04-24T15:48:35;98488.91;;;20.65;31.99
77299;BME280;66361;52.034;20.656;2023-04-24T15:52:40;98495.84;;;20.47;31.64
77299;BME280;66361;52.034;20.656;2023-04-24T15:56:43;98485.03;;;20.34;33.07
77299;BME280;66361;52.034;20.656;2023-04-24T16:00:47;98487.00;;;20.18;32.80
77299;BME280;66361;52.034;20.656;2023-04-24T16:04:51;98486.34;;;20.10;32.67
77299;BME280;66361;52.034;20.656;2023-04-24T16:08:55;98489.25;;;19.80;34.11
77299;BME280;66361;52.034;20.656;2023-04-24T16:13:01;98482.66;;;19.55;33.89
77299;BME280;66361;52.034;20.656;2023-04-24T16:17:05;98480.19;;;19.32;34.28
77299;BME280;66361;52.034;20.656;2023-04-24T16:21:15;98481.66;;;19.14;35.04
77299;BME280;66361;52.034;20.656;2023-04-24T16:25:18;98479.94;;;19.06;35.35
77299;BME280;66361;52.034;20.656;2023-04-24T16:29:21;98489.56;;;18.86;36.18
77299;BME280;66361;52.034;20.656;2023-04-24T16:33:25;98479.09;;;18.70;36.38
77299;BME280;66361;52.034;20.656;2023-04-24T16:37:29;98482.59;;;18.70;36.71
77299;BME280;66361;52.034;20.656;2023-04-24T16:41:33;98477.38;;;18.62;37.19
77299;BME280;66361;52.034;20.656;2023-04-24T16:45:38;98480.88;;;18.63;37.28
77299;BME280;66361;52.034;20.656;2023-04-24T16:49:41;98482.72;;;18.33;38.09
77299;BME280;66361;52.034;20.656;2023-04-24T16:53:46;98485.34;;;18.12;39.61
77299;BME280;66361;52.034;20.656;2023-04-24T16:57:49;98484.13;;;17.85;39.85
77299;BME280;66361;52.034;20.656;2023-04-24T17:01:53;98486.06;;;17.54;42.10
77299;BME280;66361;52.034;20.656;2023-04-24T17:05:58;98479.28;;;17.06;43.65
77299;BME280;66361;52.034;20.656;2023-04-24T17:10:03;98475.44;;;16.85;43.05
77299;BME280;66361;52.034;20.656;2023-04-24T17:14:06;98472.38;;;16.74;44.14
77299;BME280;66361;52.034;20.656;2023-04-24T17:18:10;98479.63;;;16.49;44.71
77299;BME280;66361;52.034;20.656;2023-04-24T17:22:13;98478.94;;;16.08;47.62
77299;BME280;66361;52.034;20.656;2023-04-24T17:26:19;98480.41;;;15.64;50.78
77299;BME280;66361;52.034;20.656;2023-04-24T17:30:29;98479.06;;;15.19;53.58
77299;BME280;66361;52.034;20.656;2023-04-24T17:34:33;98473.53;;;14.72;53.74
77299;BME280;66361;52.034;20.656;2023-04-24T17:38:36;98474.31;;;14.48;53.94
77299;BME280;66361;52.034;20.656;2023-04-24T17:42:40;98475.91;;;14.25;53.86
77299;BME280;66361;52.034;20.656;2023-04-24T17:46:43;98475.78;;;14.09;55.08
77299;BME280;66361;52.034;20.656;2023-04-24T17:50:47;98480.03;;;13.94;55.72
77299;BME280;66361;52.034;20.656;2023-04-24T17:54:51;98476.56;;;13.68;57.74
77299;BME280;66361;52.034;20.656;2023-04-24T17:58:58;98473.06;;;13.41;59.30
77299;BME280;66361;52.034;20.656;2023-04-24T18:03:02;98470.09;;;13.19;60.29
77299;BME280;66361;52.034;20.656;2023-04-24T18:07:05;98468.44;;;13.00;60.61
77299;BME280;66361;52.034;20.656;2023-04-24T18:11:08;98471.78;;;12.84;61.71
77299;BME280;66361;52.034;20.656;2023-04-24T18:15:13;98476.19;;;12.66;61.90
77299;BME280;66361;52.034;20.656;2023-04-24T18:19:17;98488.44;;;12.49;61.62
77299;BME280;66361;52.034;20.656;2023-04-24T18:23:20;98481.16;;;12.34;63.39
77299;BME280;66361;52.034;20.656;2023-04-24T18:27:23;98489.03;;;12.16;64.50
77299;BME280;66361;52.034;20.656;2023-04-24T18:31:28;98495.63;;;12.02;63.41
77299;BME280;66361;52.034;20.656;2023-04-24T18:35:32;98493.44;;;11.98;63.57
77299;BME280;66361;52.034;20.656;2023-04-24T18:39:35;98495.97;;;11.90;63.79
77299;BME280;66361;52.034;20.656;2023-04-24T18:43:38;98505.28;;;11.84;64.52
77299;BME280;66361;52.034;20.656;2023-04-24T18:47:43;98507.00;;;11.76;63.79
77299;BME280;66361;52.034;20.656;2023-04-24T18:51:46;98513.28;;;11.65;65.34
77299;BME280;66361;52.034;20.656;2023-04-24T18:55:54;98525.41;;;11.58;66.03
77299;BME280;66361;52.034;20.656;2023-04-24T18:59:57;98529.13;;;11.65;65.67
77299;BME280;66361;52.034;20.656;2023-04-24T19:04:07;98526.91;;;11.80;63.41
77299;BME280;66361;52.034;20.656;2023-04-24T19:08:16;98528.41;;;11.82;62.44
77299;BME280;66361;52.034;20.656;2023-04-24T19:12:19;98549.81;;;11.98;62.38
77299;BME280;66361;52.034;20.656;2023-04-24T19:16:23;98562.13;;;12.17;63.50
77299;BME280;66361;52.034;20.656;2023-04-24T19:20:28;98556.53;;;12.20;62.33
77299;BME280;66361;52.034;20.656;2023-04-24T19:24:31;98568.63;;;12.23;61.31
77299;BME280;66361;52.034;20.656;2023-04-24T19:28:34;98572.16;;;12.41;63.34
77299;BME280;66361;52.034;20.656;2023-04-24T19:32:39;98580.91;;;12.51;63.05
77299;BME280;66361;52.034;20.656;2023-04-24T19:36:44;98574.25;;;12.47;63.74
77299;BME280;66361;52.034;20.656;2023-04-24T19:40:47;98576.16;;;12.54;65.62
77299;BME280;66361;52.034;20.656;2023-04-24T19:44:50;98573.78;;;12.51;67.29
77299;BME280;66361;52.034;20.656;2023-04-24T19:48:53;98574.78;;;12.50;67.91
77299;BME280;66361;52.034;20.656;2023-04-24T19:52:58;98584.28;;;12.43;67.27
77299;BME280;66361;52.034;20.656;2023-04-24T19:57:04;98586.47;;;12.21;69.12
77299;BME280;66361;52.034;20.656;2023-04-24T20:01:07;98576.19;;;12.08;71.09
77299;BME280;66361;52.034;20.656;2023-04-24T20:05:10;98570.47;;;12.12;71.21
77299;BME280;66361;52.034;20.656;2023-04-24T20:09:15;98581.19;;;12.11;70.84
77299;BME280;66361;52.034;20.656;2023-04-24T20:13:18;98573.13;;;12.03;71.55
77299;BME280;66361;52.034;20.656;2023-04-24T20:17:21;98575.53;;;11.96;72.80
77299;BME280;66361;52.034;20.656;2023-04-24T20:21:24;98567.91;;;11.93;72.45
77299;BME280;66361;52.034;20.656;2023-04-24T20:25:31;98569.75;;;11.83;72.68
77299;BME280;66361;52.034;20.656;2023-04-24T20:29:34;98570.44;;;11.76;73.63
77299;BME280;66361;52.034;20.656;2023-04-24T20:33:39;98569.31;;;11.68;73.47
77299;BME280;66361;52.034;20.656;2023-04-24T20:37:44;98568.38;;;11.60;74.88
77299;BME280;66361;52.034;20.656;2023-04-24T20:41:49;98577.00;;;11.52;74.91
77299;BME280;66361;52.034;20.656;2023-04-24T20:45:52;98582.72;;;11.48;75.66
77299;BME280;66361;52.034;20.656;2023-04-24T20:49:56;98577.44;;;11.48;75.75
77299;BME280;66361;52.034;20.656;2023-04-24T20:54:03;98582.72;;;11.38;75.91
77299;BME280;66361;52.034;20.656;2023-04-24T20:58:08;98590.50;;;11.30;77.23
77299;BME280;66361;52.034;20.656;2023-04-24T21:02:11;98596.19;;;11.26;77.17
77299;BME280;66361;52.034;20.656;2023-04-24T21:06:14;98597.72;;;11.18;78.19
77299;BME280;66361;52.034;20.656;2023-04-24T21:10:17;98607.66;;;11.05;78.78
77299;BME280;66361;52.034;20.656;2023-04-24T21:14:23;98610.72;;;10.91;79.56
77299;BME280;66361;52.034;20.656;2023-04-24T21:18:28;98614.56;;;10.78;79.96
77299;BME280;66361;52.034;20.656;2023-04-24T21:22:32;98611.19;;;10.66;80.80